Time;durP1;ratioP1;P1;durP2;ratioP2;P2;SDS_P1;SDS_P2;PMS_P1;PMS_P2;Temp;Humidity;BMP_temperature;BMP_pressure;BME280_temperature;BME280_humidity;BME280_pressure;Samples;Min_cycle;Max_cycle;Signal;HPM_P1;HPM_P2
2022/06/29 00:00:07;;;;;;;3.70;2.42;;;;;;;;;;5026207;28;21350;-76
2022/06/29 00:02:34;;;;;;;4.28;2.42;;;;;;;;;;5026623;28;20111;-76
2022/06/29 00:04:59;;;;;;;5.03;2.72;;;;;;;;;;5029854;28;20060;-77
2022/06/29 00:07:24;;;;;;;3.42;2.30;;;;;;;;;;5030204;28;20497;-72
2022/06/29 00:09:50;;;;;;;4.15;2.50;;;;;;;;;;5023445;28;20040;-72
2022/06/29 00:12:15;;;;;;;6.72;2.50;;;;;;;;;;5028571;28;20025;-73
2022/06/29 00:14:43;;;;;;;4.25;2.63;;;;;;;;;;5029406;28;20320;-72
2022/06/29 00:17:10;;;;;;;3.13;2.22;;;;;;;;;;5030053;28;20504;-76
2022/06/29 00:19:35;;;;;;;4.22;2.38;;;;;;;;;;5009054;28;20025;-74
2022/06/29 00:22:01;;;;;;;3.97;2.75;;;;;;;;;;5032498;28;20040;-76
2022/06/29 00:24:26;;;;;;;4.53;2.72;;;;;;;;;;5030288;28;20037;-72
2022/06/29 00:26:52;;;;;;;4.22;2.90;;;;;;;;;;5012295;28;20033;-74
2022/06/29 00:29:17;;;;;;;3.22;2.50;;;;;;;;;;5025406;28;20037;-74
2022/06/29 00:31:42;;;;;;;4.30;2.60;;;;;;;;;;5011228;28;20029;-79
2022/06/29 00:34:08;;;;;;;3.80;2.70;;;;;;;;;;5027489;28;20025;-71
2022/06/29 00:36:33;;;;;;;4.20;2.72;;;;;;;;;;5012352;28;20122;-74
2022/06/29 00:38:59;;;;;;;4.07;2.60;;;;;;;;;;5028391;28;20025;-78
2022/06/29 00:41:24;;;;;;;4.32;2.75;;;;;;;;;;5028508;28;20048;-76
2022/06/29 00:43:49;;;;;;;4.78;2.80;;;;;;;;;;5011229;28;20048;-74
2022/06/29 00:46:16;;;;;;;4.18;2.63;;;;;;;;;;5030072;28;20084;-78
2022/06/29 00:48:41;;;;;;;5.28;2.78;;;;;;;;;;5027509;28;20552;-75
2022/06/29 00:51:10;;;;;;;3.90;2.70;;;;;;;;;;5025227;28;20128;-72
2022/06/29 00:53:40;;;;;;;6.40;3.28;;;;;;;;;;5026372;28;20351;-77
2022/06/29 00:56:10;;;;;;;4.10;2.63;;;;;;;;;;5004830;28;20025;-73
2022/06/29 00:58:37;;;;;;;3.15;2.80;;;;;;;;;;5005722;28;20112;-74
2022/06/29 01:01:04;;;;;;;5.00;2.85;;;;;;;;;;5026708;28;20026;-77
2022/06/29 01:03:32;;;;;;;5.13;3.17;;;;;;;;;;5011116;28;20028;-74
2022/06/29 01:05:58;;;;;;;4.60;2.83;;;;;;;;;;5025920;28;20025;-76
2022/06/29 01:08:23;;;;;;;5.10;3.08;;;;;;;;;;5030777;28;20369;-77
2022/06/29 01:10:49;;;;;;;4.82;3.03;;;;;;;;;;5025529;28;20025;-77
2022/06/29 01:13:14;;;;;;;4.30;2.90;;;;;;;;;;5029548;28;20027;-75
2022/06/29 01:15:40;;;;;;;4.82;3.00;;;;;;;;;;5024099;28;20128;-76
2022/06/29 01:18:06;;;;;;;5.35;3.15;;;;;;;;;;5026567;28;20488;-74
2022/06/29 01:20:31;;;;;;;4.38;3.10;;;;;;;;;;5027922;28;20025;-76
2022/06/29 01:22:57;;;;;;;4.88;3.28;;;;;;;;;;5021403;28;20032;-72
2022/06/29 01:25:22;;;;;;;5.30;3.40;;;;;;;;;;5007895;28;20179;-78
2022/06/29 01:27:48;;;;;;;4.35;3.30;;;;;;;;;;5029886;28;20037;-79
2022/06/29 01:30:13;;;;;;;3.60;3.05;;;;;;;;;;5027802;28;20049;-76
2022/06/29 01:32:39;;;;;;;5.60;3.33;;;;;;;;;;5028542;28;20045;-73
2022/06/29 01:35:14;;;;;;;5.50;3.35;;;;;;;;;;5025514;28;20033;-74
2022/06/29 01:37:41;;;;;;;5.50;3.20;;;;;;;;;;5029778;28;20033;-74
2022/06/29 01:40:07;;;;;;;4.70;3.20;;;;;;;;;;5028917;28;20033;-79
2022/06/29 01:42:33;;;;;;;4.80;3.20;;;;;;;;;;5007351;28;20168;-78
2022/06/29 01:44:58;;;;;;;5.35;3.40;;;;;;;;;;5028203;28;20494;-72
2022/06/29 01:47:24;;;;;;;4.95;3.47;;;;;;;;;;5007267;28;20082;-76
2022/06/29 01:49:50;;;;;;;5.05;3.60;;;;;;;;;;5027058;28;20029;-74
2022/06/29 01:52:15;;;;;;;4.55;3.20;;;;;;;;;;5020423;28;20056;-74
2022/06/29 01:54:40;;;;;;;4.53;3.17;;;;;;;;;;5021523;28;20081;-74
2022/06/29 01:57:06;;;;;;;3.60;2.85;;;;;;;;;;5023728;28;20494;-73
2022/06/29 01:59:31;;;;;;;5.85;3.50;;;;;;;;;;5010864;28;20022;-72
2022/06/29 02:01:56;;;;;;;4.82;3.20;;;;;;;;;;5031996;28;20079;-72
2022/06/29 02:04:22;;;;;;;4.22;3.28;;;;;;;;;;5035642;28;20066;-76
2022/06/29 02:06:47;;;;;;;5.18;3.55;;;;;;;;;;5036911;28;20052;-79
2022/06/29 02:09:13;;;;;;;4.90;3.28;;;;;;;;;;5012395;28;20025;-77
2022/06/29 02:11:39;;;;;;;5.05;3.35;;;;;;;;;;5029726;28;20029;-77
2022/06/29 02:14:05;;;;;;;5.07;3.67;;;;;;;;;;5033239;28;20154;-74
2022/06/29 02:16:30;;;;;;;6.32;3.72;;;;;;;;;;5028231;28;20037;-76
2022/06/29 02:18:56;;;;;;;4.85;3.55;;;;;;;;;;5033189;28;20034;-74
2022/06/29 02:21:22;;;;;;;5.13;4.03;;;;;;;;;;5028257;28;21025;-74
2022/06/29 02:23:48;;;;;;;5.00;3.63;;;;;;;;;;5007110;28;20029;-72
2022/06/29 02:26:14;;;;;;;4.53;3.80;;;;;;;;;;5010792;28;20041;-72
2022/06/29 02:28:39;;;;;;;4.70;3.72;;;;;;;;;;5004339;28;20104;-76
2022/06/29 02:36:32;;;;;;;4.10;3.50;;;;;;;;;;5011052;28;20643;-79
2022/06/29 02:38:58;;;;;;;5.40;3.85;;;;;;;;;;5002806;28;20029;-73
2022/06/29 02:41:23;;;;;;;5.22;4.00;;;;;;;;;;5010518;28;20036;-79
2022/06/29 02:43:49;;;;;;;4.25;3.38;;;;;;;;;;5008124;28;20027;-73
2022/06/29 02:46:14;;;;;;;4.55;4.00;;;;;;;;;;5024132;28;20504;-79
2022/06/29 02:48:40;;;;;;;4.70;3.92;;;;;;;;;;5013972;28;20034;-77
2022/06/29 02:51:05;;;;;;;5.10;3.70;;;;;;;;;;5009391;28;20668;-79
2022/06/29 02:53:30;;;;;;;5.00;3.92;;;;;;;;;;5011063;28;20018;-74
2022/06/29 02:55:56;;;;;;;5.28;3.60;;;;;;;;;;5010569;28;20052;-74
2022/06/29 02:58:21;;;;;;;6.43;3.92;;;;;;;;;;5010674;28;20087;-72
2022/06/29 03:00:47;;;;;;;5.78;3.60;;;;;;;;;;5003358;28;20030;-74
2022/06/29 03:03:12;;;;;;;6.57;3.70;;;;;;;;;;5005964;28;20402;-75
2022/06/29 03:05:37;;;;;;;4.93;3.90;;;;;;;;;;5015825;28;20025;-75
2022/06/29 03:08:03;;;;;;;6.55;3.90;;;;;;;;;;5010350;28;20030;-76
2022/06/29 03:10:29;;;;;;;5.82;4.20;;;;;;;;;;5012023;28;20127;-76
2022/06/29 03:12:54;;;;;;;10.60;5.95;;;;;;;;;;5008507;28;20504;-74
2022/06/29 03:15:19;;;;;;;5.18;4.13;;;;;;;;;;5008163;28;20029;-78
2022/06/29 03:17:45;;;;;;;5.85;4.38;;;;;;;;;;5010083;28;20061;-74
2022/06/29 03:20:13;;;;;;;6.90;5.20;;;;;;;;;;5012153;28;20049;-74
2022/06/29 03:22:38;;;;;;;7.10;5.40;;;;;;;;;;5008586;28;20516;-76
2022/06/29 03:25:04;;;;;;;6.93;5.30;;;;;;;;;;5010073;28;20029;-76
2022/06/29 03:27:32;;;;;;;6.63;5.25;;;;;;;;;;5008813;28;20025;-75
2022/06/29 03:29:57;;;;;;;6.10;5.10;;;;;;;;;;5024763;28;20120;-74
2022/06/29 03:32:23;;;;;;;7.53;4.82;;;;;;;;;;5034561;28;20540;-74
2022/06/29 03:34:48;;;;;;;5.45;4.78;;;;;;;;;;5028668;28;20112;-77
2022/06/29 03:37:13;;;;;;;7.30;4.50;;;;;;;;;;5031600;28;20029;-74
2022/06/29 03:39:41;;;;;;;5.63;4.40;;;;;;;;;;5027721;28;20428;-72
2022/06/29 03:42:07;;;;;;;5.68;4.30;;;;;;;;;;5011476;28;20025;-75
2022/06/29 03:44:32;;;;;;;7.53;5.05;;;;;;;;;;5031103;28;20050;-74
2022/06/29 03:46:58;;;;;;;5.93;4.43;;;;;;;;;;5029802;28;20637;-76
2022/06/29 03:49:24;;;;;;;4.82;3.80;;;;;;;;;;5034858;28;20021;-77
2022/06/29 03:51:49;;;;;;;6.57;4.22;;;;;;;;;;5026618;28;20108;-79
2022/06/29 03:54:14;;;;;;;6.35;4.70;;;;;;;;;;5031250;28;20116;-76
2022/06/29 03:56:40;;;;;;;4.85;4.20;;;;;;;;;;5012690;28;20033;-76
2022/06/29 03:59:05;;;;;;;5.30;4.40;;;;;;;;;;5029168;28;20029;-79
2022/06/29 04:01:30;;;;;;;7.90;4.20;;;;;;;;;;5028814;28;20029;-76
2022/06/29 04:03:56;;;;;;;6.35;4.20;;;;;;;;;;5025239;28;20460;-77
2022/06/29 04:06:22;;;;;;;4.95;4.45;;;;;;;;;;5028166;28;20024;-74
2022/06/29 04:08:47;;;;;;;5.13;4.50;;;;;;;;;;5032219;28;20044;-78
2022/06/29 04:14:10;;;;;;;6.63;5.07;;;;;;;;;;4976609;28;20033;-74
2022/06/29 04:16:36;;;;;;;6.25;4.93;;;;;;;;;;5030062;28;20976;-72
2022/06/29 04:19:01;;;;;;;8.38;5.55;;;;;;;;;;5007692;28;20493;-79
2022/06/29 04:21:26;;;;;;;6.85;4.90;;;;;;;;;;5025872;28;20037;-76
2022/06/29 04:23:52;;;;;;;6.50;5.30;;;;;;;;;;5006891;28;20022;-72
2022/06/29 04:26:18;;;;;;;5.80;5.20;;;;;;;;;;5028799;28;20037;-74
2022/06/29 04:28:44;;;;;;;7.40;5.65;;;;;;;;;;5027550;28;20433;-78
2022/06/29 04:31:09;;;;;;;5.75;5.05;;;;;;;;;;5030479;28;20033;-76
2022/06/29 04:33:34;;;;;;;6.80;5.28;;;;;;;;;;5024464;28;20040;-73
2022/06/29 04:36:01;;;;;;;6.32;5.40;;;;;;;;;;5014061;28;20029;-75
2022/06/29 04:38:26;;;;;;;7.93;5.85;;;;;;;;;;5030491;28;20028;-74
2022/06/29 04:40:52;;;;;;;7.78;5.32;;;;;;;;;;5027952;28;20032;-74
2022/06/29 04:43:17;;;;;;;7.18;5.43;;;;;;;;;;5021387;28;20405;-74
2022/06/29 04:48:26;;;;;;;7.25;5.35;;;;;;;;;;5027499;28;20075;-74
2022/06/29 04:50:52;;;;;;;6.18;5.45;;;;;;;;;;5027936;28;20022;-72
2022/06/29 04:53:17;;;;;;;8.68;5.70;;;;;;;;;;5026279;28;20580;-76
2022/06/29 04:55:42;;;;;;;6.20;5.55;;;;;;;;;;5026290;28;21023;-74
2022/06/29 04:58:08;;;;;;;6.75;5.00;;;;;;;;;;5027337;28;20021;-74
2022/06/29 05:00:33;;;;;;;7.90;5.28;;;;;;;;;;5019421;28;20033;-74
2022/06/29 05:02:58;;;;;;;6.70;5.25;;;;;;;;;;5030501;28;20032;-72
2022/06/29 05:05:24;;;;;;;8.13;5.47;;;;;;;;;;5016523;28;20045;-76
2022/06/29 05:07:49;;;;;;;8.02;5.35;;;;;;;;;;5027005;28;20560;-79
2022/06/29 05:10:15;;;;;;;6.30;5.53;;;;;;;;;;5010606;28;20116;-79
2022/06/29 05:12:41;;;;;;;9.13;5.47;;;;;;;;;;5028846;28;20036;-79
2022/06/29 05:15:07;;;;;;;10.23;5.85;;;;;;;;;;5028923;28;20021;-77
2022/06/29 05:17:36;;;;;;;7.63;5.65;;;;;;;;;;5032479;28;20583;-76
2022/06/29 05:20:06;;;;;;;6.68;5.22;;;;;;;;;;5028945;28;20512;-74
2022/06/29 05:22:32;;;;;;;6.75;5.28;;;;;;;;;;5027161;28;20051;-72
2022/06/29 05:24:57;;;;;;;6.57;5.40;;;;;;;;;;5029542;28;20130;-75
2022/06/29 05:27:23;;;;;;;7.05;5.00;;;;;;;;;;5029695;28;20028;-76
2022/06/29 05:29:48;;;;;;;9.25;5.03;;;;;;;;;;5026853;28;20075;-73
2022/06/29 05:32:13;;;;;;;7.05;5.53;;;;;;;;;;5029701;28;20647;-79
2022/06/29 05:34:39;;;;;;;7.70;4.80;;;;;;;;;;5028727;28;20400;-73
2022/06/29 05:37:04;;;;;;;7.75;5.03;;;;;;;;;;5012509;28;20033;-79
2022/06/29 05:39:29;;;;;;;7.72;5.20;;;;;;;;;;5030684;28;20029;-76
2022/06/29 05:41:55;;;;;;;8.57;5.82;;;;;;;;;;5029730;28;20397;-74
2022/06/29 05:44:20;;;;;;;8.23;5.35;;;;;;;;;;5029249;28;20071;-79
2022/06/29 05:46:45;;;;;;;8.02;5.20;;;;;;;;;;5010662;28;20029;-73
2022/06/29 05:49:11;;;;;;;8.02;5.13;;;;;;;;;;5008752;28;20021;-72
2022/06/29 05:51:36;;;;;;;7.00;5.45;;;;;;;;;;5025118;28;20033;-75
2022/06/29 05:54:01;;;;;;;6.90;5.50;;;;;;;;;;5025327;28;20477;-76
2022/06/29 05:56:27;;;;;;;7.88;5.75;;;;;;;;;;5022332;28;21380;-78
2022/06/29 05:58:52;;;;;;;7.85;5.80;;;;;;;;;;5023623;28;20034;-72
2022/06/29 06:01:17;;;;;;;6.35;5.25;;;;;;;;;;5024386;28;20022;-75
2022/06/29 06:03:43;;;;;;;7.13;5.65;;;;;;;;;;5025056;28;20116;-74
2022/06/29 06:06:08;;;;;;;8.98;5.93;;;;;;;;;;5019712;28;20766;-74
2022/06/29 06:08:34;;;;;;;6.45;5.63;;;;;;;;;;5012825;28;20516;-72
2022/06/29 06:11:01;;;;;;;8.10;5.50;;;;;;;;;;5012173;28;20037;-79
2022/06/29 06:13:26;;;;;;;7.35;5.18;;;;;;;;;;5031785;28;20017;-79
2022/06/29 06:15:51;;;;;;;5.85;5.15;;;;;;;;;;5027592;28;20047;-77
2022/06/29 06:18:17;;;;;;;9.43;5.50;;;;;;;;;;5010936;28;20095;-79
2022/06/29 06:20:42;;;;;;;5.93;5.03;;;;;;;;;;5012752;28;20029;-79
2022/06/29 06:23:08;;;;;;;7.05;5.32;;;;;;;;;;5013945;28;20022;-74
2022/06/29 06:25:33;;;;;;;7.30;5.40;;;;;;;;;;5011513;28;20033;-76
2022/06/29 06:28:02;;;;;;;7.50;4.88;;;;;;;;;;5025721;28;20088;-77
2022/06/29 06:30:28;;;;;;;6.72;4.93;;;;;;;;;;5026168;28;20501;-76
2022/06/29 06:32:54;;;;;;;7.68;5.53;;;;;;;;;;5026753;28;20025;-72
2022/06/29 06:35:19;;;;;;;7.03;5.68;;;;;;;;;;5019378;28;20029;-77
2022/06/29 06:37:46;;;;;;;9.45;6.25;;;;;;;;;;5026105;28;20032;-74
2022/06/29 06:42:56;;;;;;;7.32;5.57;;;;;;;;;;5025838;28;20077;-74
2022/06/29 06:45:21;;;;;;;7.63;5.53;;;;;;;;;;5028971;28;20041;-73
2022/06/29 06:47:47;;;;;;;8.82;5.55;;;;;;;;;;5027738;28;20088;-73
2022/06/29 06:50:12;;;;;;;7.10;4.70;;;;;;;;;;5012256;28;20121;-73
2022/06/29 06:52:37;;;;;;;9.52;5.10;;;;;;;;;;5030736;28;20034;-77
2022/06/29 06:55:03;;;;;;;8.85;5.70;;;;;;;;;;5026451;28;20072;-77
2022/06/29 06:57:29;;;;;;;6.05;5.03;;;;;;;;;;5033082;28;20035;-72
2022/06/29 06:59:54;;;;;;;7.07;5.35;;;;;;;;;;5030023;28;20116;-75
2022/06/29 07:02:20;;;;;;;7.53;5.50;;;;;;;;;;5036663;28;20017;-72
2022/06/29 07:04:46;;;;;;;5.18;4.50;;;;;;;;;;5031588;28;20034;-77
2022/06/29 07:07:12;;;;;;;5.63;4.70;;;;;;;;;;5027348;28;20037;-74
2022/06/29 07:09:38;;;;;;;8.85;5.20;;;;;;;;;;5011387;28;20025;-76
2022/06/29 07:12:04;;;;;;;6.35;4.70;;;;;;;;;;5035747;28;20070;-70
2022/06/29 07:14:30;;;;;;;6.55;4.45;;;;;;;;;;5031265;28;20068;-76
2022/06/29 07:16:56;;;;;;;6.45;3.85;;;;;;;;;;5013590;28;20037;-77
2022/06/29 07:19:21;;;;;;;5.90;3.67;;;;;;;;;;5012204;28;20036;-76
2022/06/29 07:21:47;;;;;;;7.95;3.70;;;;;;;;;;5009954;28;20021;-75
2022/06/29 07:24:12;;;;;;;5.53;3.92;;;;;;;;;;5029290;28;20033;-80
2022/06/29 07:26:38;;;;;;;5.65;3.80;;;;;;;;;;5014218;28;20063;-73
2022/06/29 07:29:03;;;;;;;5.80;3.55;;;;;;;;;;5034998;28;20053;-71
2022/06/29 07:31:28;;;;;;;5.47;3.60;;;;;;;;;;5029727;28;20104;-77
2022/06/29 07:33:54;;;;;;;5.03;3.67;;;;;;;;;;5032890;28;20161;-72
2022/06/29 07:36:19;;;;;;;6.00;4.20;;;;;;;;;;5030161;28;20025;-76
2022/06/29 07:38:45;;;;;;;5.97;4.35;;;;;;;;;;5030667;28;20025;-72
2022/06/29 07:41:10;;;;;;;6.15;4.05;;;;;;;;;;5033829;28;20471;-71
2022/06/29 07:43:35;;;;;;;6.45;4.53;;;;;;;;;;5015626;28;20116;-81
2022/06/29 07:46:02;;;;;;;6.47;4.95;;;;;;;;;;5011549;28;20374;-72
2022/06/29 07:48:27;;;;;;;5.22;4.13;;;;;;;;;;5034392;28;20025;-72
2022/06/29 07:50:56;;;;;;;6.47;4.78;;;;;;;;;;5029055;28;20030;-77
2022/06/29 07:53:22;;;;;;;6.38;4.78;;;;;;;;;;5026196;28;20033;-81
2022/06/29 07:55:47;;;;;;;5.80;4.75;;;;;;;;;;5030305;28;20029;-82
2022/06/29 07:58:16;;;;;;;6.95;6.00;;;;;;;;;;5012709;28;20033;-77
2022/06/29 08:00:42;;;;;;;5.72;4.93;;;;;;;;;;5028511;28;20033;-71
2022/06/29 08:03:08;;;;;;;7.18;4.70;;;;;;;;;;5012963;28;20473;-76
2022/06/29 08:05:35;;;;;;;5.93;4.22;;;;;;;;;;5028560;28;20159;-72
2022/06/29 08:08:01;;;;;;;5.97;4.57;;;;;;;;;;5028529;28;20037;-72
2022/06/29 08:10:26;;;;;;;9.85;4.88;;;;;;;;;;5029450;28;20408;-80
2022/06/29 08:12:52;;;;;;;9.35;4.40;;;;;;;;;;5032898;28;20496;-76
2022/06/29 08:15:17;;;;;;;5.90;4.50;;;;;;;;;;5027646;28;20100;-71
2022/06/29 08:17:48;;;;;;;6.10;4.20;;;;;;;;;;5029693;28;20026;-73
2022/06/29 08:20:14;;;;;;;5.30;4.50;;;;;;;;;;5005508;28;20038;-77
2022/06/29 08:22:40;;;;;;;5.63;4.60;;;;;;;;;;5030315;28;20052;-79
2022/06/29 08:25:05;;;;;;;7.18;4.70;;;;;;;;;;5011999;28;20120;-76
2022/06/29 08:27:31;;;;;;;10.35;5.28;;;;;;;;;;5026883;28;20047;-76
2022/06/29 08:29:57;;;;;;;9.43;5.30;;;;;;;;;;5030923;28;20134;-79
2022/06/29 08:32:22;;;;;;;6.75;4.40;;;;;;;;;;5011730;28;20018;-77
2022/06/29 08:34:48;;;;;;;12.55;5.50;;;;;;;;;;5014124;28;20025;-70
2022/06/29 08:37:13;;;;;;;7.72;4.97;;;;;;;;;;5027032;28;20492;-76
2022/06/29 08:39:39;;;;;;;9.50;5.40;;;;;;;;;;5032608;28;20068;-72
2022/06/29 08:42:05;;;;;;;9.85;4.25;;;;;;;;;;5025716;28;20458;-75
2022/06/29 08:44:36;;;;;;;9.68;5.35;;;;;;;;;;5006915;28;20021;-79
2022/06/29 08:47:08;;;;;;;8.95;4.65;;;;;;;;;;5027972;28;20030;-76
2022/06/29 08:49:34;;;;;;;5.55;4.75;;;;;;;;;;5012850;28;20025;-77
2022/06/29 08:52:03;;;;;;;7.80;4.47;;;;;;;;;;5029276;28;20100;-72
2022/06/29 08:54:31;;;;;;;5.70;4.10;;;;;;;;;;5029011;28;20516;-70
2022/06/29 08:56:58;;;;;;;5.00;3.53;;;;;;;;;;5015335;28;20516;-71
2022/06/29 08:59:24;;;;;;;4.22;2.65;;;;;;;;;;5029288;28;20099;-76
2022/06/29 09:01:52;;;;;;;5.15;3.13;;;;;;;;;;5033180;28;20029;-72
2022/06/29 09:04:18;;;;;;;3.75;2.40;;;;;;;;;;5024989;28;20025;-74
2022/06/29 09:06:45;;;;;;;4.03;2.10;;;;;;;;;;5031370;28;20091;-76
2022/06/29 09:09:14;;;;;;;3.10;2.25;;;;;;;;;;5032315;28;20059;-80
2022/06/29 09:11:46;;;;;;;3.72;2.42;;;;;;;;;;5013501;28;20504;-72
2022/06/29 09:14:33;;;;;;;4.40;2.25;;;;;;;;;;5028777;28;20040;-72
2022/06/29 09:17:03;;;;;;;3.55;2.00;;;;;;;;;;5031438;28;20037;-74
2022/06/29 09:19:49;;;;;;;4.80;2.00;;;;;;;;;;5028953;28;20034;-76
2022/06/29 09:22:15;;;;;;;2.42;1.42;;;;;;;;;;5026859;28;20513;-80
2022/06/29 09:24:41;;;;;;;3.30;1.60;;;;;;;;;;5006266;28;20079;-77
2022/06/29 09:27:11;;;;;;;2.72;1.52;;;;;;;;;;5031988;28;20029;-76
2022/06/29 09:29:41;;;;;;;3.35;1.40;;;;;;;;;;5009289;28;20046;-72
2022/06/29 09:32:09;;;;;;;2.70;1.40;;;;;;;;;;5023378;28;20076;-76
2022/06/29 09:34:37;;;;;;;3.53;1.50;;;;;;;;;;5028603;28;20028;-78
2022/06/29 09:37:04;;;;;;;2.10;1.40;;;;;;;;;;5026145;28;20022;-77
2022/06/29 09:39:39;;;;;;;5.22;1.45;;;;;;;;;;5028256;28;20109;-74
2022/06/29 09:42:06;;;;;;;4.22;1.52;;;;;;;;;;5023061;28;20087;-71
2022/06/29 09:44:32;;;;;;;2.95;1.60;;;;;;;;;;5021674;28;20477;-70
2022/06/29 09:46:58;;;;;;;2.47;1.50;;;;;;;;;;5010125;28;20036;-76
2022/06/29 09:49:28;;;;;;;3.85;1.77;;;;;;;;;;5014695;28;20461;-73
2022/06/29 09:51:56;;;;;;;2.53;1.40;;;;;;;;;;5029484;28;20414;-80
2022/06/29 09:54:25;;;;;;;2.95;1.77;;;;;;;;;;5026765;28;20037;-71
2022/06/29 09:56:51;;;;;;;2.92;1.70;;;;;;;;;;5027853;28;20060;-77
2022/06/29 10:02:34;;;;;;;2.05;1.40;;;;;;;;;;5032367;28;20102;-72
2022/06/29 10:05:54;;;;;;;4.25;1.50;;;;;;;;;;5028603;28;20021;-73
2022/06/29 10:08:11;;;;;;;3.13;1.65;;;;;;;;;;5022811;28;20033;-71
2022/06/29 10:10:37;;;;;;;3.15;1.40;;;;;;;;;;5025665;28;20096;-81
2022/06/29 10:16:00;;;;;;;2.80;1.10;;;;;;;;;;5023400;28;20559;-80
2022/06/29 10:19:03;;;;;;;2.67;1.30;;;;;;;;;;5026748;28;20025;-70
2022/06/29 10:21:31;;;;;;;3.00;1.40;;;;;;;;;;5028918;28;20512;-78
2022/06/29 10:23:57;;;;;;;2.95;1.48;;;;;;;;;;5009922;28;20619;-80
2022/06/29 10:26:35;;;;;;;2.75;1.42;;;;;;;;;;5032869;28;20088;-70
2022/06/29 10:29:10;;;;;;;2.10;1.02;;;;;;;;;;5010862;28;20049;-77
2022/06/29 10:31:51;;;;;;;2.92;1.27;;;;;;;;;;5008403;28;20032;-70
2022/06/29 10:34:28;;;;;;;2.42;1.20;;;;;;;;;;5011927;28;20824;-81
2022/06/29 10:37:05;;;;;;;2.25;1.27;;;;;;;;;;5008271;28;20038;-70
2022/06/29 10:39:45;;;;;;;2.05;1.25;;;;;;;;;;5014718;28;20025;-81
2022/06/29 10:45:13;;;;;;;3.00;1.35;;;;;;;;;;5015249;28;20049;-77
2022/06/29 10:47:39;;;;;;;3.00;1.30;;;;;;;;;;5013670;28;20485;-77
2022/06/29 10:50:13;;;;;;;2.17;1.23;;;;;;;;;;5012736;28;20034;-80
2022/06/29 10:52:39;;;;;;;1.85;1.10;;;;;;;;;;5010604;28;20394;-70
2022/06/29 10:55:06;;;;;;;4.07;1.20;;;;;;;;;;5008894;28;20103;-72
2022/06/29 10:57:36;;;;;;;2.00;1.20;;;;;;;;;;5008619;28;20025;-72
2022/06/29 11:00:09;;;;;;;2.40;1.30;;;;;;;;;;5023046;28;20030;-77
2022/06/29 11:02:35;;;;;;;2.13;1.20;;;;;;;;;;5006572;28;20092;-76
2022/06/29 11:05:01;;;;;;;3.38;1.40;;;;;;;;;;5004446;28;20018;-76
2022/06/29 11:12:56;;;;;;;1.52;1.13;;;;;;;;;;5013045;28;20152;-72
2022/06/29 11:15:48;;;;;;;1.38;0.98;;;;;;;;;;5010178;28;20084;-72
2022/06/29 11:18:26;;;;;;;1.48;1.10;;;;;;;;;;5009193;28;20026;-73
2022/06/29 11:20:52;;;;;;;1.95;1.10;;;;;;;;;;5006528;28;20030;-74
2022/06/29 11:23:19;;;;;;;2.17;1.35;;;;;;;;;;5014436;28;20394;-73
2022/06/29 11:25:47;;;;;;;3.08;1.48;;;;;;;;;;5007103;28;20601;-74
2022/06/29 11:28:19;;;;;;;2.80;1.20;;;;;;;;;;5010261;28;20034;-73
2022/06/29 11:31:10;;;;;;;2.63;1.75;;;;;;;;;;5029201;28;20033;-78
2022/06/29 11:33:43;;;;;;;2.78;1.20;;;;;;;;;;5026780;28;20060;-74
2022/06/29 11:36:20;;;;;;;2.05;1.13;;;;;;;;;;5029974;28;20025;-77
2022/06/29 11:38:47;;;;;;;5.57;1.20;;;;;;;;;;5025148;28;20469;-78
2022/06/29 11:41:19;;;;;;;2.05;1.10;;;;;;;;;;5028979;28;20029;-72
2022/06/29 11:43:46;;;;;;;1.53;1.10;;;;;;;;;;5024521;28;20038;-73
2022/06/29 11:46:22;;;;;;;2.03;1.30;;;;;;;;;;5025811;28;20022;-73
2022/06/29 11:51:53;;;;;;;4.43;1.60;;;;;;;;;;5027877;28;20107;-72
2022/06/29 11:54:33;;;;;;;5.03;1.67;;;;;;;;;;5028684;28;20025;-73
2022/06/29 11:56:59;;;;;;;2.25;1.40;;;;;;;;;;5024702;28;20105;-74
2022/06/29 11:59:24;;;;;;;3.28;1.67;;;;;;;;;;5012154;28;20460;-74
2022/06/29 12:01:53;;;;;;;3.08;1.70;;;;;;;;;;5028951;28;20109;-73
2022/06/29 12:04:40;;;;;;;2.72;1.50;;;;;;;;;;5028064;28;20049;-73
2022/06/29 12:07:14;;;;;;;4.07;1.33;;;;;;;;;;5029418;28;20053;-72
2022/06/29 12:09:41;;;;;;;4.70;1.80;;;;;;;;;;5028376;28;20080;-73
2022/06/29 12:12:08;;;;;;;5.70;1.80;;;;;;;;;;5024983;28;20489;-73
2022/06/29 12:14:35;;;;;;;3.90;1.50;;;;;;;;;;5030458;28;20025;-73
2022/06/29 12:17:01;;;;;;;2.55;1.30;;;;;;;;;;5010481;28;20397;-74
2022/06/29 12:19:26;;;;;;;2.95;1.50;;;;;;;;;;5025523;28;20028;-74
2022/06/29 12:21:52;;;;;;;2.40;1.50;;;;;;;;;;5008550;28;20501;-74
2022/06/29 12:24:18;;;;;;;2.30;1.30;;;;;;;;;;5021433;28;20036;-73
2022/06/29 12:26:44;;;;;;;3.25;1.60;;;;;;;;;;5028709;28;20037;-74
2022/06/29 12:29:10;;;;;;;1.60;1.20;;;;;;;;;;5024243;28;20053;-73
2022/06/29 12:31:36;;;;;;;3.17;1.40;;;;;;;;;;5023364;28;20036;-73
2022/06/29 12:34:03;;;;;;;2.28;1.38;;;;;;;;;;5024720;28;20029;-73
2022/06/29 12:36:29;;;;;;;2.05;1.23;;;;;;;;;;5028507;28;20029;-73
2022/06/29 12:38:54;;;;;;;3.00;1.42;;;;;;;;;;5023423;28;20103;-73
2022/06/29 12:41:19;;;;;;;2.75;1.48;;;;;;;;;;5026411;28;20108;-72
2022/06/29 12:43:45;;;;;;;2.72;1.20;;;;;;;;;;5008663;28;20561;-74
2022/06/29 12:46:11;;;;;;;1.55;1.17;;;;;;;;;;5026569;28;20040;-73
2022/06/29 12:48:36;;;;;;;3.92;1.30;;;;;;;;;;4999450;28;20025;-74
2022/06/29 12:51:02;;;;;;;2.40;1.10;;;;;;;;;;5015594;28;20461;-73
2022/06/29 12:53:27;;;;;;;2.90;1.10;;;;;;;;;;5001097;28;20056;-74
2022/06/29 12:55:53;;;;;;;2.40;1.30;;;;;;;;;;5004856;28;20060;-74
2022/06/29 12:58:18;;;;;;;3.25;1.20;;;;;;;;;;5006632;28;20087;-74
2022/06/29 13:00:44;;;;;;;7.30;1.25;;;;;;;;;;5019047;28;20572;-74
2022/06/29 13:03:09;;;;;;;2.33;1.30;;;;;;;;;;5024265;28;20496;-73
2022/06/29 13:05:35;;;;;;;1.70;1.20;;;;;;;;;;5022247;28;20033;-73
2022/06/29 13:08:01;;;;;;;2.42;1.23;;;;;;;;;;5019148;28;20087;-73
2022/06/29 13:10:28;;;;;;;2.10;1.30;;;;;;;;;;5023539;28;20025;-73
2022/06/29 13:12:53;;;;;;;1.83;1.23;;;;;;;;;;5004396;28;20033;-74
2022/06/29 13:15:19;;;;;;;2.63;1.30;;;;;;;;;;5023079;28;20473;-73
2022/06/29 13:17:44;;;;;;;2.03;1.23;;;;;;;;;;5025243;28;20041;-73
2022/06/29 13:20:12;;;;;;;2.10;1.30;;;;;;;;;;5025656;28;20441;-74
2022/06/29 13:22:37;;;;;;;2.75;1.40;;;;;;;;;;5028875;28;20397;-74
2022/06/29 13:25:03;;;;;;;1.75;1.20;;;;;;;;;;5024884;28;20033;-73
2022/06/29 13:27:28;;;;;;;1.85;1.20;;;;;;;;;;5009077;28;20378;-74
2022/06/29 13:29:54;;;;;;;1.90;1.30;;;;;;;;;;5024019;28;20128;-74
2022/06/29 13:32:19;;;;;;;4.25;1.20;;;;;;;;;;5029207;28;21738;-74
2022/06/29 13:34:45;;;;;;;2.35;1.17;;;;;;;;;;5024200;28;20037;-74
2022/06/29 13:37:10;;;;;;;2.30;1.30;;;;;;;;;;5031218;28;20481;-74
2022/06/29 13:39:36;;;;;;;2.47;1.30;;;;;;;;;;5023168;28;20704;-74
2022/06/29 13:42:01;;;;;;;1.98;1.20;;;;;;;;;;5030925;28;20496;-74
2022/06/29 13:44:27;;;;;;;2.60;1.33;;;;;;;;;;5025097;28;20088;-73
2022/06/29 13:46:53;;;;;;;3.97;1.75;;;;;;;;;;5023446;28;20496;-73
2022/06/29 13:49:18;;;;;;;2.63;1.20;;;;;;;;;;5027920;28;20416;-74
2022/06/29 13:51:44;;;;;;;3.30;1.23;;;;;;;;;;5028167;28;20033;-74
2022/06/29 13:54:09;;;;;;;2.28;1.35;;;;;;;;;;5024420;28;20025;-74
2022/06/29 13:56:35;;;;;;;4.72;1.80;;;;;;;;;;5009691;28;20033;-74
2022/06/29 13:59:00;;;;;;;3.05;1.40;;;;;;;;;;5009601;28;20030;-75
2022/06/29 14:01:26;;;;;;;2.00;1.27;;;;;;;;;;5025882;28;20536;-73
2022/06/29 14:03:51;;;;;;;4.38;1.40;;;;;;;;;;5010076;28;20394;-75
2022/06/29 14:06:17;;;;;;;3.05;1.38;;;;;;;;;;5011102;28;20056;-75
2022/06/29 14:08:43;;;;;;;2.53;1.25;;;;;;;;;;5027761;28;20108;-73
2022/06/29 14:11:08;;;;;;;1.77;1.23;;;;;;;;;;5012212;28;20104;-75
2022/06/29 14:13:36;;;;;;;2.80;1.30;;;;;;;;;;5007841;28;20022;-75
2022/06/29 14:16:02;;;;;;;3.22;1.33;;;;;;;;;;5031116;28;20068;-73
2022/06/29 14:18:28;;;;;;;6.40;1.60;;;;;;;;;;5031822;28;20025;-73
2022/06/29 14:20:56;;;;;;;2.50;1.40;;;;;;;;;;5008486;28;20075;-73
2022/06/29 14:23:21;;;;;;;2.10;1.30;;;;;;;;;;5027156;28;20021;-73
2022/06/29 14:25:49;;;;;;;3.35;1.20;;;;;;;;;;5025827;28;20501;-74
2022/06/29 14:28:15;;;;;;;3.78;1.40;;;;;;;;;;5024995;28;20024;-74
2022/06/29 14:30:40;;;;;;;2.60;1.67;;;;;;;;;;5030941;28;20033;-73
2022/06/29 14:33:06;;;;;;;1.98;1.30;;;;;;;;;;5007035;28;20089;-74
2022/06/29 14:35:31;;;;;;;2.92;1.30;;;;;;;;;;5029113;28;20040;-74
2022/06/29 14:37:57;;;;;;;2.55;1.33;;;;;;;;;;5014764;28;20025;-74
2022/06/29 14:40:22;;;;;;;2.40;1.30;;;;;;;;;;5025954;28;20489;-73
2022/06/29 14:42:49;;;;;;;2.33;1.20;;;;;;;;;;5028416;28;20042;-73
2022/06/29 14:45:16;;;;;;;2.40;1.45;;;;;;;;;;5012942;28;20076;-74
2022/06/29 14:47:41;;;;;;;2.53;1.50;;;;;;;;;;5026856;28;20445;-73
2022/06/29 14:50:07;;;;;;;2.63;1.30;;;;;;;;;;5027339;28;20108;-73
2022/06/29 14:52:36;;;;;;;4.60;1.60;;;;;;;;;;5031005;28;20059;-74
2022/06/29 14:55:03;;;;;;;1.67;1.20;;;;;;;;;;5028216;28;20388;-74
2022/06/29 14:57:29;;;;;;;2.53;1.45;;;;;;;;;;5027539;28;20112;-73
2022/06/29 14:59:55;;;;;;;2.63;1.50;;;;;;;;;;5024402;28;20056;-73
2022/06/29 15:02:21;;;;;;;3.60;1.30;;;;;;;;;;5023068;28;20065;-73
2022/06/29 15:04:46;;;;;;;3.10;1.45;;;;;;;;;;5024995;28;20044;-74
2022/06/29 15:07:12;;;;;;;1.60;1.10;;;;;;;;;;5006615;28;20026;-73
2022/06/29 15:09:37;;;;;;;1.73;1.27;;;;;;;;;;5024613;28;20029;-73
2022/06/29 15:12:04;;;;;;;3.50;1.70;;;;;;;;;;5026705;28;20030;-74